Andover, Connecticut
Current Conditions -  °F | °C
As of 2:52 PM on Thursday 18 Dec 2014 (Local Time) from KIJD Reporting Station
Broken Clouds Broken Clouds  
Wind Chill:   Ceiling: 3300
Heat Index:   Visibility: 10mi
Dew Point: -3°   Wind: 10mph
Humidity: 60%   Direction: 320°NW
Pressure: 29.85"   Gusts: 17mph
Location:  41.74°N, 72.37°W
Report Text: KIJD 181952Z AUTO 32009G15KT 10SM BKN033 04/M03 A2985 RMK AO2 SLP110 T00441028
Loading
Personal Weather Stations






























Interactive Weather Map New forecast layout! Learn more

10-Day Weather Forecast

Advertisements
Track Severe Weather on mobile